Time;durP1;ratioP1;P1;durP2;ratioP2;P2;SDS_P1;SDS_P2;PMS_P1;PMS_P2;Temp;Humidity;BMP_temperature;BMP_pressure;BME280_temperature;BME280_humidity;BME280_pressure;Samples;Min_cycle;Max_cycle;Signal;HPM_P1;HPM_P2
2023/10/31 00:01:04;;;;;;;;;;;11.40;99.90;;;;;;5078196;28;20119;-63
2023/10/31 00:03:31;;;;;;;3.72;0.60;;;11.40;99.90;;;;;;5070270;28;19917;-63
2023/10/31 00:05:57;;;;;;;2.70;0.80;;;11.40;99.90;;;;;;5062797;28;20033;-63
2023/10/31 00:08:24;;;;;;;;;;;11.40;99.90;;;;;;5071290;28;20051;-62
2023/10/31 00:10:49;;;;;;;4.82;0.60;;;11.40;99.90;;;;;;5072293;28;20365;-64
2023/10/31 00:13:15;;;;;;;1.27;0.43;;;11.40;99.90;;;;;;5077524;28;20064;-63
2023/10/31 00:15:41;;;;;;;;;;;11.40;99.90;;;;;;5070112;28;20076;-61
2023/10/31 00:18:07;;;;;;;1.48;0.50;;;11.40;99.90;;;;;;5057040;28;20441;-64
2023/10/31 00:20:32;;;;;;;;;;;11.30;99.90;;;;;;5053697;28;20128;-62
2023/10/31 00:22:58;;;;;;;0.40;0.38;;;11.30;99.90;;;;;;5063654;28;20737;-62
2023/10/31 00:25:24;;;;;;;;;;;11.30;99.90;;;;;;5062418;28;20037;-63
2023/10/31 00:27:49;;;;;;;2.03;0.40;;;11.20;99.90;;;;;;5054814;28;20367;-61
2023/10/31 00:30:15;;;;;;;0.68;0.25;;;11.20;99.90;;;;;;5059258;28;20041;-63
2023/10/31 00:32:41;;;;;;;;;;;11.20;99.90;;;;;;5063370;28;20071;-63
2023/10/31 00:35:07;;;;;;;0.60;0.30;;;11.20;99.90;;;;;;5066912;28;19988;-63
2023/10/31 00:37:32;;;;;;;;;;;11.20;99.90;;;;;;5056161;28;20668;-63
2023/10/31 00:39:58;;;;;;;1.50;0.35;;;11.20;99.90;;;;;;5067738;28;19928;-63
2023/10/31 00:42:23;;;;;;;6.82;2.03;;;11.20;99.90;;;;;;5058747;28;20040;-63
2023/10/31 00:44:49;;;;;;;;;;;11.20;99.90;;;;;;5066663;28;20040;-64
2023/10/31 00:47:15;;;;;;;2.17;0.40;;;11.20;99.90;;;;;;5053860;28;20446;-63
2023/10/31 00:49:41;;;;;;;0.80;0.40;;;11.20;99.90;;;;;;5051814;28;20186;-63
2023/10/31 00:52:06;;;;;;;0.30;0.30;;;11.20;99.90;;;;;;5047463;28;20064;-60
2023/10/31 00:54:32;;;;;;;;;;;11.20;99.90;;;;;;5065721;28;20800;-64
2023/10/31 00:56:58;;;;;;;3.00;0.40;;;11.20;99.90;;;;;;5049951;28;19934;-63
2023/10/31 00:59:23;;;;;;;0.82;0.60;;;11.20;99.90;;;;;;5062486;28;20082;-62
2023/10/31 01:01:49;;;;;;;;;;;11.10;99.90;;;;;;5042850;28;20054;-62
2023/10/31 01:04:15;;;;;;;4.13;0.60;;;11.10;99.90;;;;;;5057616;28;19920;-63
2023/10/31 01:06:41;;;;;;;;;;;11.10;99.90;;;;;;5048358;28;20071;-64
2023/10/31 01:09:06;;;;;;;1.45;0.77;;;11.00;99.90;;;;;;5053381;28;19920;-63
2023/10/31 01:11:32;;;;;;;;;;;11.00;99.90;;;;;;5056836;28;20056;-63
2023/10/31 01:13:58;;;;;;;1.02;0.70;;;10.90;99.90;;;;;;5057960;28;19974;-61
2023/10/31 01:16:23;;;;;;;;;;;10.80;99.90;;;;;;5050672;28;20544;-61
2023/10/31 01:18:49;;;;;;;1.38;0.90;;;10.80;99.90;;;;;;5049920;28;19920;-63
2023/10/31 01:21:14;;;;;;;;;;;10.70;99.90;;;;;;5048253;28;20616;-63
2023/10/31 01:23:40;;;;;;;2.67;1.20;;;10.60;99.90;;;;;;5055681;28;20483;-62
2023/10/31 01:26:06;;;;;;;2.08;1.50;;;10.60;99.90;;;;;;5059800;28;20073;-63
2023/10/31 01:28:31;;;;;;;;;;;10.50;99.90;;;;;;5057717;28;20044;-63
2023/10/31 01:30:57;;;;;;;1.63;1.52;;;10.50;99.90;;;;;;5044860;28;20395;-63
2023/10/31 01:33:23;;;;;;;;;;;10.30;99.90;;;;;;5065729;28;20496;-62
2023/10/31 01:35:48;;;;;;;1.20;1.10;;;10.30;99.90;;;;;;5052459;28;19932;-62
2023/10/31 01:38:14;;;;;;;;;;;10.30;99.90;;;;;;5064476;28;20450;-61
2023/10/31 01:40:39;;;;;;;1.40;1.30;;;10.20;99.90;;;;;;5048369;28;19920;-62
2023/10/31 01:43:05;;;;;;;2.00;1.58;;;10.20;99.90;;;;;;5054572;28;20673;-61
2023/10/31 01:45:31;;;;;;;1.55;1.45;;;10.10;99.90;;;;;;5044759;28;20076;-63
2023/10/31 01:47:56;;;;;;;;;;;10.20;99.90;;;;;;5054267;28;20123;-62
2023/10/31 01:50:22;;;;;;;3.10;1.40;;;10.10;99.90;;;;;;5055281;28;19927;-62
2023/10/31 01:52:48;;;;;;;1.67;1.58;;;10.10;99.90;;;;;;5056893;28;20036;-64
2023/10/31 01:55:14;;;;;;;1.88;1.40;;;10.00;99.90;;;;;;5056597;28;20037;-63
2023/10/31 01:57:40;;;;;;;2.38;1.75;;;10.00;99.90;;;;;;5056513;28;20054;-63
2023/10/31 02:00:06;;;;;;;;;;;10.00;99.90;;;;;;5055611;28;20037;-63
2023/10/31 02:02:34;;;;;;;2.20;2.00;;;10.00;99.90;;;;;;5054070;28;19916;-63
2023/10/31 02:05:00;;;;;;;4.13;2.08;;;10.00;99.90;;;;;;5053987;28;20064;-63
2023/10/31 02:07:25;;;;;;;;;;;9.90;99.90;;;;;;5058264;28;20079;-62
2023/10/31 02:09:51;;;;;;;2.83;2.53;;;9.90;99.90;;;;;;5055619;28;20409;-64
2023/10/31 02:12:36;;;;;;;2.55;2.30;;;9.80;99.90;;;;;;5051325;28;20066;-60
2023/10/31 02:15:03;;;;;;;2.83;2.40;;;9.80;99.90;;;;;;5045788;28;20059;-63
2023/10/31 02:17:29;;;;;;;2.50;2.30;;;9.70;99.90;;;;;;5043817;28;20790;-64
2023/10/31 02:19:55;;;;;;;2.50;2.20;;;9.70;99.90;;;;;;5053936;28;20045;-62
2023/10/31 02:22:21;;;;;;;;;;;9.70;99.90;;;;;;5051945;28;20526;-60
2023/10/31 02:24:47;;;;;;;2.43;1.97;;;9.70;99.90;;;;;;5058637;28;19983;-62
2023/10/31 02:27:12;;;;;;;;;;;9.70;99.90;;;;;;5051970;28;21101;-64
2023/10/31 02:29:39;;;;;;;2.80;1.70;;;9.60;99.90;;;;;;5055941;28;20327;-64
2023/10/31 02:32:05;;;;;;;7.32;1.58;;;9.60;99.90;;;;;;5046754;28;20041;-62
2023/10/31 02:34:31;;;;;;;;;;;9.60;99.90;;;;;;5065875;28;20123;-63
2023/10/31 02:36:56;;;;;;;1.75;1.38;;;9.60;99.90;;;;;;5059515;28;19916;-62
2023/10/31 02:39:22;;;;;;;;;;;9.50;99.90;;;;;;5057518;28;20041;-65
2023/10/31 02:41:47;;;;;;;1.80;1.50;;;9.50;99.90;;;;;;5055731;28;19916;-63
2023/10/31 02:44:15;;;;;;;2.40;1.90;;;9.50;99.90;;;;;;5065275;28;20365;-63
2023/10/31 02:46:40;;;;;;;1.75;1.58;;;9.50;99.90;;;;;;5055836;28;20087;-64
2023/10/31 02:49:06;;;;;;;;;;;9.40;99.90;;;;;;5065946;28;20459;-63
2023/10/31 02:51:31;;;;;;;2.45;1.70;;;9.40;99.90;;;;;;5046729;28;19916;-65
2023/10/31 02:53:57;;;;;;;1.60;1.50;;;9.50;99.90;;;;;;5051659;28;20594;-63
2023/10/31 02:56:23;;;;;;;;;;;9.50;99.90;;;;;;5061419;28;20588;-63
2023/10/31 02:58:48;;;;;;;4.32;1.80;;;9.50;99.90;;;;;;5054518;28;19917;-64
2023/10/31 03:01:14;;;;;;;;;;;9.40;99.90;;;;;;5049343;28;20044;-64
2023/10/31 03:03:39;;;;;;;4.40;1.58;;;9.40;99.90;;;;;;5055025;28;19916;-62
2023/10/31 03:06:05;;;;;;;;;;;9.40;99.90;;;;;;5048179;28;20041;-62
2023/10/31 03:08:31;;;;;;;1.52;1.42;;;9.40;99.90;;;;;;5058575;28;19970;-63
2023/10/31 03:10:56;;;;;;;;;;;9.40;99.90;;;;;;5048113;28;20049;-63
2023/10/31 03:13:23;;;;;;;1.35;1.25;;;9.40;99.90;;;;;;5063978;28;20416;-62
2023/10/31 03:15:49;;;;;;;2.30;1.67;;;9.50;99.90;;;;;;5052892;28;20044;-63
2023/10/31 03:18:14;;;;;;;;;;;9.40;99.90;;;;;;5062585;28;20584;-61
2023/10/31 03:20:40;;;;;;;2.53;1.60;;;9.40;99.90;;;;;;5051379;28;20007;-64
2023/10/31 03:23:06;;;;;;;;;;;9.30;99.90;;;;;;5054317;28;20411;-63
2023/10/31 03:25:31;;;;;;;2.05;1.20;;;9.30;99.90;;;;;;5057349;28;19951;-63
2023/10/31 03:27:57;;;;;;;2.03;1.17;;;9.30;99.90;;;;;;5049240;28;20438;-64
2023/10/31 03:30:22;;;;;;;1.30;1.15;;;9.30;99.90;;;;;;5056497;28;20045;-64
2023/10/31 03:32:48;;;;;;;2.63;1.33;;;9.30;99.90;;;;;;5055904;28;20041;-63
2023/10/31 03:35:14;;;;;;;;;;;9.30;99.90;;;;;;5063496;28;20044;-63
2023/10/31 03:37:41;;;;;;;4.18;1.63;;;9.20;99.90;;;;;;5053874;28;19917;-63
2023/10/31 03:40:08;;;;;;;1.38;1.15;;;9.10;99.90;;;;;;5056568;28;20048;-62
2023/10/31 03:42:34;;;;;;;2.00;1.10;;;9.10;99.90;;;;;;5057169;28;20076;-61
2023/10/31 03:45:00;;;;;;;;;;;9.00;99.90;;;;;;5058811;28;20099;-61
2023/10/31 03:47:25;;;;;;;6.13;1.38;;;9.00;99.90;;;;;;5056195;28;19925;-63
2023/10/31 03:49:51;;;;;;;3.63;1.30;;;9.00;99.90;;;;;;5058120;28;20411;-62
2023/10/31 03:52:16;;;;;;;;;;;9.00;99.90;;;;;;5054024;28;20043;-63
2023/10/31 03:54:42;;;;;;;2.15;1.27;;;9.00;99.90;;;;;;5058377;28;19971;-63
2023/10/31 03:57:08;;;;;;;1.30;0.90;;;9.00;99.90;;;;;;5051086;28;20052;-62
2023/10/31 03:59:33;;;;;;;;;;;9.00;99.90;;;;;;5056520;28;20052;-63
2023/10/31 04:01:59;;;;;;;2.42;1.63;;;9.00;99.90;;;;;;5055758;28;19942;-62
2023/10/31 04:04:24;;;;;;;3.85;1.90;;;9.00;99.90;;;;;;5060934;28;20069;-63
2023/10/31 04:06:50;;;;;;;;;;;9.00;99.90;;;;;;5060869;28;20064;-63
2023/10/31 04:09:15;;;;;;;3.75;1.27;;;9.00;99.90;;;;;;5054470;28;19924;-63
2023/10/31 04:11:43;;;;;;;5.43;1.85;;;9.00;99.90;;;;;;5052364;28;20037;-63
2023/10/31 04:14:08;;;;;;;3.03;1.50;;;9.00;99.90;;;;;;5061013;28;20109;-64
2023/10/31 04:16:38;;;;;;;;;;;9.00;99.90;;;;;;5054315;28;20496;-63
2023/10/31 04:19:06;;;;;;;6.15;1.60;;;9.00;99.90;;;;;;5047685;28;20381;-62
2023/10/31 04:21:36;;;;;;;8.07;1.50;;;9.00;99.90;;;;;;5056000;28;20056;-62
2023/10/31 04:24:02;;;;;;;3.83;1.75;;;9.00;99.90;;;;;;5054888;28;20060;-62
2023/10/31 04:26:28;;;;;;;;;;;8.90;99.90;;;;;;5055074;28;20077;-64
2023/10/31 04:28:53;;;;;;;2.38;1.67;;;8.90;99.90;;;;;;5059157;28;19921;-62
2023/10/31 04:31:19;;;;;;;;;;;8.80;99.90;;;;;;5054630;28;20036;-62
2023/10/31 04:33:44;;;;;;;3.75;2.00;;;8.80;99.90;;;;;;5055482;28;19951;-63
2023/10/31 04:36:10;;;;;;;4.10;2.17;;;8.80;99.90;;;;;;5054894;28;20046;-64
2023/10/31 04:38:36;;;;;;;;;;;8.80;99.90;;;;;;5060636;28;20120;-64
2023/10/31 04:41:02;;;;;;;2.88;1.90;;;8.80;99.90;;;;;;5058769;28;19926;-64
2023/10/31 04:43:27;;;;;;;;;;;8.70;99.90;;;;;;5062023;28;20036;-63
2023/10/31 04:45:53;;;;;;;3.85;2.35;;;8.70;99.90;;;;;;5050672;28;19940;-63
2023/10/31 04:48:19;;;;;;;;;;;8.70;99.90;;;;;;5045991;28;20040;-63
2023/10/31 04:50:44;;;;;;;4.93;2.13;;;8.70;99.90;;;;;;5050197;28;19949;-63
2023/10/31 04:53:10;;;;;;;;;;;8.70;99.90;;;;;;5058752;28;20412;-62
2023/10/31 04:55:35;;;;;;;5.13;2.40;;;8.70;99.90;;;;;;5061598;28;20298;-63
2023/10/31 04:58:01;;;;;;;4.03;2.50;;;8.70;99.90;;;;;;5063000;28;20098;-64
2023/10/31 05:00:27;;;;;;;4.90;2.05;;;8.70;99.90;;;;;;5064913;28;20033;-63
2023/10/31 05:02:52;;;;;;;4.72;2.20;;;8.70;99.90;;;;;;5050524;28;20101;-63
2023/10/31 05:05:18;;;;;;;;;;;8.70;99.90;;;;;;5057125;28;20508;-63
2023/10/31 05:07:43;;;;;;;3.97;2.20;;;8.70;99.90;;;;;;5056407;28;19983;-63
2023/10/31 05:10:09;;;;;;;4.32;1.75;;;8.70;99.90;;;;;;5053001;28;20036;-62
2023/10/31 05:12:36;;;;;;;4.32;1.92;;;8.70;99.90;;;;;;5060551;28;20070;-64
2023/10/31 05:15:02;;;;;;;5.40;2.42;;;8.70;99.90;;;;;;5052198;28;20044;-63
2023/10/31 05:17:28;;;;;;;3.53;2.30;;;8.70;99.90;;;;;;5051125;28;20045;-64
2023/10/31 05:19:53;;;;;;;;;;;8.60;99.90;;;;;;5055311;28;20099;-63
2023/10/31 05:22:19;;;;;;;3.28;2.40;;;8.60;99.90;;;;;;5050668;28;20383;-64
2023/10/31 05:24:44;;;;;;;;;;;8.60;99.90;;;;;;5052847;28;20553;-63
2023/10/31 05:27:10;;;;;;;5.00;2.20;;;8.60;99.90;;;;;;5044955;28;19932;-64
2023/10/31 05:29:37;;;;;;;;;;;8.60;99.90;;;;;;5052502;28;20033;-62
2023/10/31 05:32:03;;;;;;;3.60;2.08;;;8.60;99.90;;;;;;5045926;28;19916;-63
2023/10/31 05:34:29;;;;;;;3.25;2.35;;;8.70;99.90;;;;;;5041527;28;20497;-63
2023/10/31 05:36:54;;;;;;;;;;;8.70;99.90;;;;;;5047997;28;20128;-64
2023/10/31 05:39:20;;;;;;;3.00;1.75;;;8.70;99.90;;;;;;5048493;28;19964;-64
2023/10/31 05:41:45;;;;;;;4.47;2.00;;;8.60;99.90;;;;;;5046360;28;20448;-63
2023/10/31 05:44:11;;;;;;;2.00;1.60;;;8.60;99.90;;;;;;5055177;28;20033;-64
2023/10/31 05:46:40;;;;;;;4.78;1.52;;;8.70;99.90;;;;;;5048980;28;20061;-64
2023/10/31 05:49:07;;;;;;;13.82;2.13;;;8.70;99.90;;;;;;5052731;28;20032;-60
2023/10/31 05:51:33;;;;;;;1.55;1.38;;;8.70;99.90;;;;;;5043726;28;20052;-64
2023/10/31 05:53:59;;;;;;;;;;;8.70;99.90;;;;;;5053762;28;20094;-64
2023/10/31 05:56:25;;;;;;;4.70;1.38;;;8.70;99.90;;;;;;5046519;28;19939;-64
2023/10/31 05:58:51;;;;;;;;;;;8.70;99.90;;;;;;5048499;28;20525;-64
2023/10/31 06:01:17;;;;;;;1.20;1.10;;;8.70;99.90;;;;;;5041026;28;19929;-64
2023/10/31 06:03:43;;;;;;;3.28;1.25;;;8.70;99.90;;;;;;5057239;28;20036;-65
2023/10/31 06:06:10;;;;;;;1.35;1.20;;;8.70;99.90;;;;;;5057216;28;20672;-63
2023/10/31 06:08:35;;;;;;;5.30;1.27;;;8.60;99.90;;;;;;5050510;28;20038;-63
2023/10/31 06:11:01;;;;;;;;;;;8.70;99.90;;;;;;5052018;28;20048;-64
2023/10/31 06:13:27;;;;;;;1.83;1.20;;;8.70;99.90;;;;;;5053810;28;19916;-63
2023/10/31 06:15:54;;;;;;;2.35;1.33;;;8.70;99.90;;;;;;5050531;28;20037;-63
2023/10/31 06:18:19;;;;;;;1.52;1.10;;;8.70;99.90;;;;;;5057266;28;20530;-62
2023/10/31 06:20:45;;;;;;;;;;;8.70;99.90;;;;;;5055535;28;20115;-62
2023/10/31 06:23:10;;;;;;;1.88;1.23;;;8.70;99.90;;;;;;5049459;28;19924;-64
2023/10/31 06:25:36;;;;;;;2.58;1.23;;;8.70;99.90;;;;;;5055609;28;20040;-63
2023/10/31 06:28:01;;;;;;;1.55;1.30;;;8.70;99.90;;;;;;5060787;28;20558;-63
2023/10/31 06:30:28;;;;;;;;;;;8.70;99.90;;;;;;5052822;28;20041;-61
2023/10/31 06:32:54;;;;;;;0.90;0.88;;;8.70;99.90;;;;;;5050826;28;19912;-61
2023/10/31 06:35:19;;;;;;;;;;;8.70;99.90;;;;;;5051036;28;20059;-64
2023/10/31 06:37:45;;;;;;;1.25;1.13;;;8.60;99.90;;;;;;5044132;28;19946;-65
2023/10/31 06:40:11;;;;;;;1.40;1.00;;;8.60;99.90;;;;;;5051599;28;20489;-65
2023/10/31 06:42:36;;;;;;;3.15;1.60;;;8.60;99.90;;;;;;5049744;28;20036;-60
2023/10/31 06:45:02;;;;;;;;;;;8.60;99.90;;;;;;5046439;28;20055;-62
2023/10/31 06:47:28;;;;;;;3.80;1.30;;;8.60;99.90;;;;;;5056113;28;19924;-63
2023/10/31 06:49:54;;;;;;;;;;;8.60;99.90;;;;;;5060405;28;20111;-62
2023/10/31 06:52:19;;;;;;;2.13;1.85;;;8.50;99.90;;;;;;5059724;28;19920;-63
2023/10/31 06:54:45;;;;;;;1.92;1.30;;;8.50;99.90;;;;;;5052502;28;20040;-62
2023/10/31 06:57:10;;;;;;;2.17;1.42;;;8.60;99.90;;;;;;5057781;28;20071;-60
2023/10/31 06:59:36;;;;;;;3.60;1.60;;;8.50;99.90;;;;;;5054628;28;20039;-63
2023/10/31 07:02:02;;;;;;;;;;;8.50;99.90;;;;;;5056423;28;20035;-64
2023/10/31 07:04:27;;;;;;;1.83;1.40;;;8.50;99.90;;;;;;5056097;28;19971;-61
2023/10/31 07:06:57;;;;;;;2.60;1.63;;;8.60;99.90;;;;;;5062732;28;20116;-65
2023/10/31 07:09:23;;;;;;;2.00;1.23;;;8.60;99.90;;;;;;5059495;28;20044;-63
2023/10/31 07:11:49;;;;;;;2.05;1.20;;;8.60;99.90;;;;;;5050841;28;20364;-64
2023/10/31 07:14:14;;;;;;;;;;;8.70;99.90;;;;;;5051295;28;20041;-64
2023/10/31 07:16:40;;;;;;;2.58;1.70;;;8.80;99.90;;;;;;5057958;28;20628;-65
2023/10/31 07:19:06;;;;;;;1.65;1.35;;;8.70;99.90;;;;;;5058339;28;20110;-65
2023/10/31 07:21:32;;;;;;;3.95;1.60;;;8.80;99.90;;;;;;5049468;28;20055;-63
2023/10/31 07:23:58;;;;;;;;;;;8.70;99.90;;;;;;5053232;28;20041;-64
2023/10/31 07:26:23;;;;;;;2.55;1.15;;;8.70;99.90;;;;;;5053041;28;19921;-64
2023/10/31 07:28:49;;;;;;;;;;;8.70;99.90;;;;;;5059555;28;20123;-64
2023/10/31 07:31:15;;;;;;;5.38;1.17;;;8.70;99.90;;;;;;5059171;28;19926;-63
2023/10/31 07:33:41;;;;;;;;;;;8.70;99.90;;;;;;5065119;28;20545;-63
2023/10/31 07:36:07;;;;;;;2.05;1.00;;;8.70;99.90;;;;;;5048717;28;20419;-63
2023/10/31 07:38:33;;;;;;;6.88;1.00;;;8.70;99.90;;;;;;5046752;28;20555;-64
2023/10/31 07:40:59;;;;;;;1.20;0.93;;;8.70;99.90;;;;;;5059706;28;20575;-60
2023/10/31 07:43:24;;;;;;;;;;;8.80;99.90;;;;;;5056130;28;20040;-65
2023/10/31 07:45:50;;;;;;;0.80;0.80;;;8.80;99.90;;;;;;5056049;28;19932;-62
2023/10/31 07:48:15;;;;;;;;;;;8.80;99.90;;;;;;5056049;28;20575;-65
2023/10/31 07:50:42;;;;;;;1.20;0.63;;;8.70;99.90;;;;;;5053415;28;20015;-61
2023/10/31 07:53:07;;;;;;;2.08;1.02;;;8.80;99.90;;;;;;5055443;28;20500;-64
2023/10/31 07:55:33;;;;;;;;;;;8.80;99.90;;;;;;5062055;28;20037;-64
2023/10/31 07:57:58;;;;;;;2.47;0.88;;;8.90;99.90;;;;;;5065717;28;20008;-63
2023/10/31 08:00:24;;;;;;;1.25;1.08;;;8.90;99.90;;;;;;5059570;28;20049;-62
2023/10/31 08:02:50;;;;;;;;;;;9.00;99.90;;;;;;5067019;28;20040;-64
2023/10/31 08:05:15;;;;;;;1.70;1.00;;;9.00;99.90;;;;;;5058303;28;19947;-63
2023/10/31 08:07:41;;;;;;;5.20;1.25;;;9.10;99.90;;;;;;5059123;28;20130;-64
2023/10/31 08:10:07;;;;;;;;;;;9.20;99.90;;;;;;5053294;28;20076;-65
2023/10/31 08:12:32;;;;;;;8.32;1.95;;;9.20;99.90;;;;;;5051660;28;19963;-65
2023/10/31 08:14:58;;;;;;;;;;;9.10;99.90;;;;;;5056291;28;20155;-62
2023/10/31 08:17:24;;;;;;;1.60;1.40;;;9.10;99.90;;;;;;5057869;28;19916;-64
2023/10/31 08:19:50;;;;;;;;;;;9.10;99.90;;;;;;5063903;28;20043;-64
2023/10/31 08:22:16;;;;;;;2.08;0.82;;;9.10;99.90;;;;;;5053976;28;19925;-64
2023/10/31 08:24:42;;;;;;;2.25;1.20;;;9.10;99.90;;;;;;5051281;28;20582;-62
2023/10/31 08:27:07;;;;;;;;;;;9.00;99.90;;;;;;5058186;28;20044;-60
2023/10/31 08:29:33;;;;;;;1.40;0.90;;;9.00;99.90;;;;;;5059794;28;20498;-62
2023/10/31 08:31:58;;;;;;;1.25;1.00;;;8.90;99.90;;;;;;5059238;28;20040;-64
2023/10/31 08:34:24;;;;;;;;;;;8.90;99.90;;;;;;5056405;28;20055;-64
2023/10/31 08:36:50;;;;;;;1.95;1.40;;;9.00;99.90;;;;;;5056586;28;19921;-64
2023/10/31 08:39:15;;;;;;;;;;;8.90;99.90;;;;;;5053986;28;20050;-63
2023/10/31 08:41:59;;;;;;;3.15;1.85;;;9.00;99.90;;;;;;5049277;28;20011;-64
2023/10/31 08:44:25;;;;;;;3.65;2.00;;;9.00;99.90;;;;;;5049780;28;20032;-63
2023/10/31 08:46:50;;;;;;;3.40;2.20;;;9.10;99.90;;;;;;5052321;28;20132;-64
2023/10/31 08:49:16;;;;;;;;;;;9.10;99.90;;;;;;5056744;28;20123;-62
2023/10/31 08:51:43;;;;;;;4.60;2.03;;;9.20;99.90;;;;;;5058672;28;20018;-64
2023/10/31 08:54:09;;;;;;;2.85;1.92;;;9.20;99.90;;;;;;5061451;28;20056;-63
2023/10/31 08:56:35;;;;;;;3.13;1.60;;;9.20;99.90;;;;;;5058402;28;20495;-65
2023/10/31 08:59:01;;;;;;;;;;;9.20;99.90;;;;;;5070612;28;20064;-64
2023/10/31 09:01:28;;;;;;;3.28;1.30;;;9.30;99.90;;;;;;5058689;28;19930;-63
2023/10/31 09:03:54;;;;;;;4.43;1.40;;;9.30;99.90;;;;;;5057476;28;20044;-64
2023/10/31 09:06:20;;;;;;;;;;;9.40;99.90;;;;;;5057904;28;20101;-62
2023/10/31 09:08:45;;;;;;;1.70;1.23;;;9.40;99.90;;;;;;5061020;28;19966;-64
2023/10/31 09:11:11;;;;;;;2.55;1.40;;;9.30;99.90;;;;;;5053948;28;20055;-62
2023/10/31 09:13:36;;;;;;;;;;;9.20;99.90;;;;;;5054868;28;20037;-64
2023/10/31 09:16:02;;;;;;;3.08;1.45;;;9.20;99.90;;;;;;5056977;28;19975;-65
2023/10/31 09:18:28;;;;;;;2.58;1.88;;;9.20;99.90;;;;;;5054018;28;20490;-60
2023/10/31 09:20:53;;;;;;;1.90;1.45;;;9.20;99.90;;;;;;5047221;28;20079;-63
2023/10/31 09:23:19;;;;;;;;;;;9.20;99.90;;;;;;5056504;28;20082;-63
2023/10/31 09:25:45;;;;;;;1.65;1.00;;;9.20;99.90;;;;;;5059374;28;20023;-62
2023/10/31 09:28:11;;;;;;;;;;;9.10;99.90;;;;;;5057032;28;20123;-63
2023/10/31 09:30:36;;;;;;;3.33;1.30;;;9.10;99.90;;;;;;5045525;28;19921;-60
2023/10/31 09:33:02;;;;;;;2.75;1.55;;;9.00;99.90;;;;;;5060659;28;20488;-63
2023/10/31 09:35:28;;;;;;;;;;;9.00;99.90;;;;;;5054323;28;20579;-64
2023/10/31 09:37:55;;;;;;;2.50;1.10;;;9.00;99.90;;;;;;5056008;28;19939;-63
2023/10/31 09:40:21;;;;;;;2.53;1.30;;;9.00;99.90;;;;;;5044146;28;20045;-64
2023/10/31 09:42:48;;;;;;;5.43;1.20;;;8.90;99.90;;;;;;5051830;28;20041;-63
2023/10/31 09:45:14;;;;;;;3.58;1.17;;;9.00;99.90;;;;;;5057226;28;20605;-63
2023/10/31 09:47:41;;;;;;;2.85;1.50;;;9.00;99.90;;;;;;5058485;28;20738;-62
2023/10/31 09:50:09;;;;;;;4.95;1.05;;;9.10;99.90;;;;;;5063802;28;20114;-64
2023/10/31 09:52:38;;;;;;;1.55;1.15;;;9.00;99.90;;;;;;5050281;28;20048;-64
2023/10/31 09:55:04;;;;;;;1.58;0.95;;;9.10;99.90;;;;;;5055497;28;20116;-65
2023/10/31 09:57:30;;;;;;;2.67;1.05;;;9.10;99.90;;;;;;5066505;28;20058;-64
2023/10/31 09:59:56;;;;;;;;;;;9.20;99.90;;;;;;5059151;28;20117;-64
2023/10/31 10:02:21;;;;;;;1.50;1.00;;;9.20;99.90;;;;;;5052500;28;19967;-63
2023/10/31 10:04:50;;;;;;;;;;;9.20;99.90;;;;;;5063860;28;20047;-63
2023/10/31 10:07:16;;;;;;;1.10;0.80;;;9.20;99.90;;;;;;5061333;28;19951;-64
2023/10/31 10:09:44;;;;;;;1.10;1.00;;;9.20;99.90;;;;;;5063189;28;20040;-64
2023/10/31 10:12:17;;;;;;;1.48;1.20;;;9.30;99.90;;;;;;5048779;28;20064;-62
2023/10/31 10:14:46;;;;;;;1.60;1.10;;;9.30;99.90;;;;;;5063079;28;20055;-63
2023/10/31 10:17:21;;;;;;;2.60;1.05;;;9.30;99.90;;;;;;5048593;28;20048;-60
2023/10/31 10:19:47;;;;;;;1.92;1.20;;;9.30;99.90;;;;;;5054930;28;20036;-62
2023/10/31 10:22:14;;;;;;;;;;;9.40;99.90;;;;;;5057853;28;20036;-64
2023/10/31 10:24:41;;;;;;;1.52;0.80;;;9.40;99.90;;;;;;5064831;28;20403;-62
2023/10/31 10:27:09;;;;;;;1.48;1.00;;;9.40;99.90;;;;;;5053439;28;20412;-63
2023/10/31 10:29:37;;;;;;;1.02;0.80;;;9.50;99.90;;;;;;5055659;28;20052;-65
2023/10/31 10:32:08;;;;;;;0.88;0.80;;;9.50;99.90;;;;;;5054464;28;20039;-63
2023/10/31 10:34:33;;;;;;;1.02;0.70;;;9.50;99.90;;;;;;5050484;28;20040;-64
2023/10/31 10:36:59;;;;;;;;;;;9.50;99.90;;;;;;5054816;28;20048;-63
2023/10/31 10:39:24;;;;;;;1.05;0.73;;;9.50;99.90;;;;;;5050372;28;19921;-62
2023/10/31 10:41:57;;;;;;;;;;;9.40;99.90;;;;;;5045048;28;20088;-61
2023/10/31 10:44:33;;;;;;;2.70;1.00;;;9.40;99.90;;;;;;5057761;28;20005;-62
2023/10/31 10:47:02;;;;;;;2.28;0.70;;;9.30;99.90;;;;;;5055890;28;20135;-61
2023/10/31 10:49:32;;;;;;;1.10;0.93;;;9.20;99.90;;;;;;5066079;28;20041;-64
2023/10/31 10:52:05;;;;;;;3.20;1.73;;;9.20;99.90;;;;;;5051558;28;20167;-64
2023/10/31 10:54:52;;;;;;;2.17;1.65;;;9.30;99.90;;;;;;5061569;28;20102;-62
2023/10/31 10:57:31;;;;;;;3.80;1.73;;;9.30;99.90;;;;;;5049333;28;20078;-64
2023/10/31 11:00:02;;;;;;;2.15;1.73;;;9.40;99.90;;;;;;5044790;28;20037;-63
2023/10/31 11:02:29;;;;;;;4.47;2.88;;;9.40;99.90;;;;;;5034151;28;20072;-62
2023/10/31 11:04:56;;;;;;;4.65;2.50;;;9.50;99.90;;;;;;5035805;28;20144;-63
2023/10/31 11:07:24;;;;;;;4.05;3.45;;;9.50;99.90;;;;;;5027271;28;20046;-64
2023/10/31 11:09:50;;;;;;;7.28;3.28;;;9.50;99.90;;;;;;5036598;28;20144;-62
2023/10/31 11:12:16;;;;;;;;;;;9.60;99.90;;;;;;5030112;28;20563;-63
2023/10/31 11:14:42;;;;;;;7.10;3.63;;;9.50;99.90;;;;;;5034260;28;19921;-62
2023/10/31 11:17:34;;;;;;;5.20;4.28;;;9.60;99.90;;;;;;5029690;28;20041;-64
2023/10/31 11:20:00;;;;;;;6.55;4.40;;;9.70;99.90;;;;;;5042463;28;20451;-63
2023/10/31 11:22:36;;;;;;;;;;;9.80;99.90;;;;;;5036072;28;20575;-63
2023/10/31 11:25:02;;;;;;;7.60;5.20;;;9.70;99.90;;;;;;5038269;28;20003;-64
2023/10/31 11:27:27;;;;;;;7.90;4.47;;;9.80;99.90;;;;;;5032348;28;20760;-63
2023/10/31 11:29:54;;;;;;;;;;;9.80;99.90;;;;;;5031814;28;20038;-62
2023/10/31 11:32:22;;;;;;;7.90;4.80;;;9.80;99.90;;;;;;5050549;28;20398;-63
2023/10/31 11:34:47;;;;;;;6.47;4.35;;;9.80;99.90;;;;;;5058551;28;20046;-63
2023/10/31 11:37:24;;;;;;;;;;;9.80;99.90;;;;;;5054835;28;20119;-64
2023/10/31 11:40:20;;;;;;;5.72;4.68;;;9.90;99.90;;;;;;5058321;28;19996;-62
2023/10/31 11:42:56;;;;;;;6.68;4.65;;;9.80;99.90;;;;;;5044885;28;20135;-62
2023/10/31 11:45:46;;;;;;;6.20;4.88;;;9.80;99.90;;;;;;5041043;28;20409;-62
2023/10/31 11:48:12;;;;;;;7.05;5.13;;;9.80;99.90;;;;;;5048283;28;20049;-63
2023/10/31 11:50:39;;;;;;;13.32;5.97;;;9.70;99.90;;;;;;5053969;28;20141;-63
2023/10/31 11:53:12;;;;;;;9.43;5.50;;;9.70;99.90;;;;;;5049344;28;21089;-63
2023/10/31 11:55:46;;;;;;;10.55;5.32;;;9.70;99.90;;;;;;5053882;28;20067;-63
2023/10/31 11:58:20;;;;;;;8.60;5.75;;;9.70;99.90;;;;;;5044557;28;20044;-61
2023/10/31 12:00:48;;;;;;;12.88;5.95;;;9.70;99.90;;;;;;5049103;28;20041;-63
2023/10/31 12:03:21;;;;;;;7.68;5.35;;;9.70;99.90;;;;;;5053550;28;20124;-62
2023/10/31 12:05:58;;;;;;;8.13;5.22;;;9.70;99.90;;;;;;5052583;28;20072;-63
2023/10/31 12:08:28;;;;;;;12.68;5.47;;;9.70;99.90;;;;;;5054691;28;20033;-62
2023/10/31 12:11:12;;;;;;;9.07;5.32;;;9.80;99.90;;;;;;5053100;28;20040;-62
2023/10/31 12:14:03;;;;;;;10.00;5.43;;;9.80;99.90;;;;;;5054357;28;20043;-62
2023/10/31 12:16:30;;;;;;;11.32;5.28;;;9.80;99.90;;;;;;5059336;28;20052;-61
2023/10/31 12:19:05;;;;;;;12.10;4.57;;;9.80;99.90;;;;;;5059339;28;20036;-61
2023/10/31 12:21:49;;;;;;;9.00;5.35;;;9.90;99.90;;;;;;5058532;28;20044;-62
2023/10/31 12:24:17;;;;;;;7.53;5.13;;;10.00;99.90;;;;;;5061621;28;20408;-61
2023/10/31 12:26:44;;;;;;;8.60;5.68;;;10.00;99.90;;;;;;5058820;28;20114;-61
2023/10/31 12:29:15;;;;;;;8.77;6.20;;;10.00;99.90;;;;;;5055463;28;20052;-61
2023/10/31 12:31:46;;;;;;;10.88;6.07;;;10.00;99.90;;;;;;5045560;28;20095;-62
2023/10/31 12:34:12;;;;;;;16.52;5.60;;;10.00;99.90;;;;;;5048499;28;20065;-61
2023/10/31 12:36:39;;;;;;;9.45;4.40;;;10.00;99.90;;;;;;5045478;28;20575;-62
2023/10/31 12:39:07;;;;;;;7.30;4.80;;;10.00;99.90;;;;;;5054719;28;20040;-62
2023/10/31 12:41:32;;;;;;;8.68;4.70;;;10.00;99.90;;;;;;5063058;28;20036;-62
2023/10/31 12:43:58;;;;;;;;;;;10.00;99.90;;;;;;5067088;28;20051;-63
2023/10/31 12:46:29;;;;;;;7.93;4.53;;;10.00;99.90;;;;;;5051392;28;20319;-61
2023/10/31 12:48:55;;;;;;;10.35;4.53;;;10.00;99.90;;;;;;5066677;28;20045;-62
2023/10/31 12:51:21;;;;;;;6.95;4.22;;;10.00;99.90;;;;;;5056242;28;20052;-61
2023/10/31 12:53:53;;;;;;;;;;;10.00;99.90;;;;;;5057205;28;20033;-61
2023/10/31 12:56:41;;;;;;;8.38;4.63;;;9.90;99.90;;;;;;5047337;28;19920;-61
2023/10/31 12:59:08;;;;;;;8.20;4.60;;;9.90;99.90;;;;;;5055701;28;20060;-61
2023/10/31 13:01:42;;;;;;;11.15;4.50;;;9.90;99.90;;;;;;5052648;28;20037;-63
2023/10/31 13:04:07;;;;;;;11.20;5.13;;;9.80;99.90;;;;;;5053807;28;20047;-62
2023/10/31 13:06:33;;;;;;;;;;;9.90;99.90;;;;;;5054592;28;20048;-63
2023/10/31 13:09:00;;;;;;;12.50;4.60;;;9.80;99.90;;;;;;5059832;28;20164;-62
2023/10/31 13:11:30;;;;;;;11.57;5.30;;;9.90;99.90;;;;;;5051989;28;20478;-62
2023/10/31 13:13:55;;;;;;;10.63;4.90;;;9.90;99.90;;;;;;5048718;28;20044;-62
2023/10/31 13:16:21;;;;;;;;;;;9.90;99.90;;;;;;5053886;28;20051;-61